sensor_id;sensor_type;location;lat;lon;timestamp;pressure;altitude;pressure_sealevel;temperature;humidity
29903;BME280;30288;50.514;9.678;2023-03-15T00:01:09;98196.75;;;1.53;100.00
29903;BME280;30288;50.514;9.678;2023-03-15T00:03:15;98205.03;;;1.48;100.00
29903;BME280;30288;50.514;9.678;2023-03-15T00:05:21;98206.69;;;1.38;100.00
29903;BME280;30288;50.514;9.678;2023-03-15T00:07:26;98206.69;;;1.29;100.00
29903;BME280;30288;50.514;9.678;2023-03-15T00:09:31;98206.69;;;1.38;100.00
29903;BME280;30288;50.514;9.678;2023-03-15T00:11:36;98210.00;;;1.34;100.00
29903;BME280;30288;50.514;9.678;2023-03-15T00:13:41;98206.69;;;1.38;100.00
29903;BME280;30288;50.514;9.678;2023-03-15T00:15:51;98214.97;;;1.37;100.00
29903;BME280;30288;50.514;9.678;2023-03-15T00:17:56;98214.97;;;1.22;100.00
29903;BME280;30288;50.514;9.678;2023-03-15T00:20:05;98216.59;;;1.20;100.00
29903;BME280;30288;50.514;9.678;2023-03-15T00:22:11;98217.41;;;1.05;100.00
29903;BME280;30288;50.514;9.678;2023-03-15T00:24:16;98219.88;;;0.98;100.00
29903;BME280;30288;50.514;9.678;2023-03-15T00:26:21;98211.63;;;0.96;100.00
29903;BME280;30288;50.514;9.678;2023-03-15T00:28:27;98223.19;;;0.97;100.00
29903;BME280;30288;50.514;9.678;2023-03-15T00:30:32;98221.53;;;0.93;100.00
29903;BME280;30288;50.514;9.678;2023-03-15T00:32:39;98223.16;;;0.87;100.00
29903;BME280;30288;50.514;9.678;2023-03-15T00:34:44;98238.03;;;0.78;100.00
29903;BME280;30288;50.514;9.678;2023-03-15T00:36:50;98238.03;;;0.75;100.00
29903;BME280;30288;50.514;9.678;2023-03-15T00:38:56;98234.69;;;0.73;100.00
29903;BME280;30288;50.514;9.678;2023-03-15T00:41:04;98234.69;;;0.64;100.00
29903;BME280;30288;50.514;9.678;2023-03-15T00:43:09;98240.47;;;0.62;100.00
29903;BME280;30288;50.514;9.678;2023-03-15T00:45:20;98236.28;;;0.47;100.00
29903;BME280;30288;50.514;9.678;2023-03-15T00:47:25;98249.41;;;0.34;100.00
29903;BME280;30288;50.514;9.678;2023-03-15T00:49:34;98245.22;;;0.21;100.00
29903;BME280;30288;50.514;9.678;2023-03-15T00:51:40;98250.97;;;0.17;100.00
29903;BME280;30288;50.514;9.678;2023-03-15T00:53:46;98244.31;;;0.10;100.00
29903;BME280;30288;50.514;9.678;2023-03-15T00:55:51;98237.72;;;0.06;100.00
29903;BME280;30288;50.514;9.678;2023-03-15T00:57:56;98249.22;;;-0.06;100.00
29903;BME280;30288;50.514;9.678;2023-03-15T01:00:02;98245.88;;;-0.08;100.00
29903;BME280;30288;50.514;9.678;2023-03-15T01:02:10;98246.69;;;-0.12;100.00
29903;BME280;30288;50.514;9.678;2023-03-15T01:04:16;98254.06;;;-0.21;100.00
29903;BME280;30288;50.514;9.678;2023-03-15T01:06:26;98259.81;;;-0.25;100.00
29903;BME280;30288;50.514;9.678;2023-03-15T01:08:33;98264.72;;;-0.29;100.00
29903;BME280;30288;50.514;9.678;2023-03-15T01:10:38;98273.78;;;-0.30;100.00
29903;BME280;30288;50.514;9.678;2023-03-15T01:12:44;98263.78;;;-0.42;100.00
29903;BME280;30288;50.514;9.678;2023-03-15T01:14:49;98272.84;;;-0.44;100.00
29903;BME280;30288;50.514;9.678;2023-03-15T01:16:54;98268.66;;;-0.51;100.00
29903;BME280;30288;50.514;9.678;2023-03-15T01:19:00;98274.41;;;-0.55;100.00
29903;BME280;30288;50.514;9.678;2023-03-15T01:21:06;98275.19;;;-0.56;100.00
29903;BME280;30288;50.514;9.678;2023-03-15T01:23:14;98280.09;;;-0.61;100.00
29903;BME280;30288;50.514;9.678;2023-03-15T01:25:21;98277.69;;;-0.58;100.00
29903;BME280;30288;50.514;9.678;2023-03-15T01:27:26;98276.84;;;-0.58;100.00
29903;BME280;30288;50.514;9.678;2023-03-15T01:29:31;98283.41;;;-0.63;100.00
29903;BME280;30288;50.514;9.678;2023-03-15T01:31:36;98294.06;;;-0.69;100.00
29903;BME280;30288;50.514;9.678;2023-03-15T01:33:41;98288.34;;;-0.63;100.00
29903;BME280;30288;50.514;9.678;2023-03-15T01:35:58;98293.31;;;-0.60;100.00
29903;BME280;30288;50.514;9.678;2023-03-15T01:38:04;98289.25;;;-0.54;100.00
29903;BME280;30288;50.514;9.678;2023-03-15T01:40:14;98290.03;;;-0.59;100.00
29903;BME280;30288;50.514;9.678;2023-03-15T01:42:19;98291.63;;;-0.64;100.00
29903;BME280;30288;50.514;9.678;2023-03-15T01:44:48;98289.97;;;-0.65;100.00
29903;BME280;30288;50.514;9.678;2023-03-15T01:46:54;98289.16;;;-0.64;100.00
29903;BME280;30288;50.514;9.678;2023-03-15T01:49:03;98289.81;;;-0.80;100.00
29903;BME280;30288;50.514;9.678;2023-03-15T01:51:19;98296.34;;;-0.85;100.00
29903;BME280;30288;50.514;9.678;2023-03-15T01:53:27;98298.94;;;-0.75;100.00
29903;BME280;30288;50.514;9.678;2023-03-15T01:55:38;98295.59;;;-0.81;100.00
29903;BME280;30288;50.514;9.678;2023-03-15T01:57:50;98296.47;;;-0.76;100.00
29903;BME280;30288;50.514;9.678;2023-03-15T02:00:04;98300.56;;;-0.77;100.00
29903;BME280;30288;50.514;9.678;2023-03-15T02:02:25;98306.22;;;-0.89;100.00
29903;BME280;30288;50.514;9.678;2023-03-15T02:04:34;98293.03;;;-0.91;100.00
29903;BME280;30288;50.514;9.678;2023-03-15T02:06:41;98298.81;;;-0.85;100.00
29903;BME280;30288;50.514;9.678;2023-03-15T02:08:52;98301.34;;;-0.82;100.00
29903;BME280;30288;50.514;9.678;2023-03-15T02:11:04;98303.72;;;-0.92;100.00
29903;BME280;30288;50.514;9.678;2023-03-15T02:13:10;98305.22;;;-1.04;100.00
29903;BME280;30288;50.514;9.678;2023-03-15T02:15:18;98307.69;;;-1.06;100.00
29903;BME280;30288;50.514;9.678;2023-03-15T02:17:32;98312.66;;;-1.03;100.00
29903;BME280;30288;50.514;9.678;2023-03-15T02:19:47;98314.34;;;-0.99;100.00
29903;BME280;30288;50.514;9.678;2023-03-15T02:22:06;98321.69;;;-1.06;100.00
29903;BME280;30288;50.514;9.678;2023-03-15T02:24:27;98322.53;;;-1.03;100.00
29903;BME280;30288;50.514;9.678;2023-03-15T02:26:43;98319.97;;;-1.12;100.00
29903;BME280;30288;50.514;9.678;2023-03-15T02:28:52;98319.19;;;-1.08;100.00
29903;BME280;30288;50.514;9.678;2023-03-15T02:30:58;98324.13;;;-1.08;100.00
29903;BME280;30288;50.514;9.678;2023-03-15T02:33:08;98325.78;;;-1.07;100.00
29903;BME280;30288;50.514;9.678;2023-03-15T02:35:23;98328.22;;;-1.08;100.00
29903;BME280;30288;50.514;9.678;2023-03-15T02:37:28;98327.47;;;-1.03;100.00
29903;BME280;30288;50.514;9.678;2023-03-15T02:39:34;98331.59;;;-1.03;100.00
29903;BME280;30288;50.514;9.678;2023-03-15T02:41:41;98328.25;;;-1.10;100.00
29903;BME280;30288;50.514;9.678;2023-03-15T02:43:51;98331.47;;;-1.12;100.00
29903;BME280;30288;50.514;9.678;2023-03-15T02:45:59;98329.13;;;-1.05;100.00
29903;BME280;30288;50.514;9.678;2023-03-15T02:48:05;98337.44;;;-0.97;100.00
29903;BME280;30288;50.514;9.678;2023-03-15T02:50:12;98335.09;;;-0.86;100.00
29903;BME280;30288;50.514;9.678;2023-03-15T02:52:17;98341.56;;;-0.94;100.00
29903;BME280;30288;50.514;9.678;2023-03-15T02:54:22;98352.25;;;-0.97;100.00
29903;BME280;30288;50.514;9.678;2023-03-15T02:56:27;98353.09;;;-0.96;100.00
29903;BME280;30288;50.514;9.678;2023-03-15T02:58:35;98358.91;;;-0.90;100.00
29903;BME280;30288;50.514;9.678;2023-03-15T03:00:43;98353.97;;;-0.91;100.00
29903;BME280;30288;50.514;9.678;2023-03-15T03:02:48;98360.59;;;-0.85;100.00
29903;BME280;30288;50.514;9.678;2023-03-15T03:04:53;98360.56;;;-0.92;100.00
29903;BME280;30288;50.514;9.678;2023-03-15T03:06:58;98359.72;;;-0.92;100.00
29903;BME280;30288;50.514;9.678;2023-03-15T03:09:11;98360.50;;;-0.95;100.00
29903;BME280;30288;50.514;9.678;2023-03-15T03:11:17;98368.78;;;-0.93;100.00
29903;BME280;30288;50.514;9.678;2023-03-15T03:13:22;98367.19;;;-0.88;100.00
29903;BME280;30288;50.514;9.678;2023-03-15T03:15:27;98365.63;;;-0.79;100.00
29903;BME280;30288;50.514;9.678;2023-03-15T03:17:35;98373.91;;;-0.77;100.00
29903;BME280;30288;50.514;9.678;2023-03-15T03:19:41;98372.25;;;-0.78;100.00
29903;BME280;30288;50.514;9.678;2023-03-15T03:21:46;98375.53;;;-0.79;100.00
29903;BME280;30288;50.514;9.678;2023-03-15T03:23:53;98375.56;;;-0.76;100.00
29903;BME280;30288;50.514;9.678;2023-03-15T03:25:59;98371.50;;;-0.71;100.00
29903;BME280;30288;50.514;9.678;2023-03-15T03:28:05;98375.69;;;-0.64;100.00
29903;BME280;30288;50.514;9.678;2023-03-15T03:30:13;98379.03;;;-0.62;100.00
29903;BME280;30288;50.514;9.678;2023-03-15T03:32:23;98377.47;;;-0.51;100.00
29903;BME280;30288;50.514;9.678;2023-03-15T03:34:31;98377.53;;;-0.45;100.00
29903;BME280;30288;50.514;9.678;2023-03-15T03:36:37;98382.56;;;-0.39;100.00
29903;BME280;30288;50.514;9.678;2023-03-15T03:38:44;98380.97;;;-0.28;100.00
29903;BME280;30288;50.514;9.678;2023-03-15T03:40:50;98376.13;;;-0.20;100.00
29903;BME280;30288;50.514;9.678;2023-03-15T03:42:55;98392.69;;;-0.15;100.00
29903;BME280;30288;50.514;9.678;2023-03-15T03:45:00;98391.06;;;-0.10;100.00
29903;BME280;30288;50.514;9.678;2023-03-15T03:47:10;98391.94;;;-0.03;100.00
29903;BME280;30288;50.514;9.678;2023-03-15T03:49:15;98401.06;;;0.03;100.00
29903;BME280;30288;50.514;9.678;2023-03-15T03:51:23;98401.06;;;-0.01;100.00
29903;BME280;30288;50.514;9.678;2023-03-15T03:53:29;98405.25;;;0.08;100.00
29903;BME280;30288;50.514;9.678;2023-03-15T03:55:34;98401.16;;;0.15;100.00
29903;BME280;30288;50.514;9.678;2023-03-15T03:57:43;98404.50;;;0.20;100.00
29903;BME280;30288;50.514;9.678;2023-03-15T03:59:57;98408.66;;;0.25;100.00
29903;BME280;30288;50.514;9.678;2023-03-15T04:02:05;98419.41;;;0.29;100.00
29903;BME280;30288;50.514;9.678;2023-03-15T04:04:11;98419.50;;;0.38;100.00
29903;BME280;30288;50.514;9.678;2023-03-15T04:06:18;98420.34;;;0.41;100.00
29903;BME280;30288;50.514;9.678;2023-03-15T04:08:26;98426.16;;;0.48;100.00
29903;BME280;30288;50.514;9.678;2023-03-15T04:10:32;98427.88;;;0.52;100.00
29903;BME280;30288;50.514;9.678;2023-03-15T04:12:37;98427.06;;;0.55;100.00
29903;BME280;30288;50.514;9.678;2023-03-15T04:14:42;98427.88;;;0.55;100.00
29903;BME280;30288;50.514;9.678;2023-03-15T04:16:49;98432.00;;;0.58;100.00
29903;BME280;30288;50.514;9.678;2023-03-15T04:18:56;98432.91;;;0.64;100.00
29903;BME280;30288;50.514;9.678;2023-03-15T04:21:04;98442.81;;;0.64;100.00
29903;BME280;30288;50.514;9.678;2023-03-15T04:23:16;98445.34;;;0.70;100.00
29903;BME280;30288;50.514;9.678;2023-03-15T04:25:47;98455.22;;;0.69;100.00
29903;BME280;30288;50.514;9.678;2023-03-15T04:28:13;98452.78;;;0.73;100.00
29903;BME280;30288;50.514;9.678;2023-03-15T04:30:30;98453.59;;;0.72;100.00
29903;BME280;30288;50.514;9.678;2023-03-15T04:33:02;98457.75;;;0.76;100.00
29903;BME280;30288;50.514;9.678;2023-03-15T04:35:33;98454.44;;;0.74;100.00
29903;BME280;30288;50.514;9.678;2023-03-15T04:38:05;98456.13;;;0.78;100.00
29903;BME280;30288;50.514;9.678;2023-03-15T04:40:19;98455.28;;;0.81;100.00
29903;BME280;30288;50.514;9.678;2023-03-15T04:42:45;98460.25;;;0.81;100.00
29903;BME280;30288;50.514;9.678;2023-03-15T04:45:10;98465.28;;;0.88;100.00
29903;BME280;30288;50.514;9.678;2023-03-15T04:47:30;98462.78;;;0.85;100.00
29903;BME280;30288;50.514;9.678;2023-03-15T04:49:55;98462.78;;;0.85;100.00
29903;BME280;30288;50.514;9.678;2023-03-15T04:52:19;98471.00;;;0.81;100.00
29903;BME280;30288;50.514;9.678;2023-03-15T04:54:45;98468.50;;;0.78;100.00
29903;BME280;30288;50.514;9.678;2023-03-15T04:57:07;98467.66;;;0.76;100.00
29903;BME280;30288;50.514;9.678;2023-03-15T04:59:36;98468.50;;;0.75;100.00
29903;BME280;30288;50.514;9.678;2023-03-15T05:01:59;98473.47;;;0.80;100.00
29903;BME280;30288;50.514;9.678;2023-03-15T05:04:14;98482.56;;;0.82;100.00
29903;BME280;30288;50.514;9.678;2023-03-15T05:06:29;98478.44;;;0.83;100.00
29903;BME280;30288;50.514;9.678;2023-03-15T05:08:53;98479.28;;;0.83;100.00
29903;BME280;30288;50.514;9.678;2023-03-15T05:11:07;98476.78;;;0.82;100.00
29903;BME280;30288;50.514;9.678;2023-03-15T05:13:13;98477.59;;;0.79;100.00
29903;BME280;30288;50.514;9.678;2023-03-15T05:15:57;98485.88;;;0.83;100.00
29903;BME280;30288;50.514;9.678;2023-03-15T05:18:20;98484.25;;;0.83;100.00
29903;BME280;30288;50.514;9.678;2023-03-15T05:20:58;98495.78;;;0.83;100.00
29903;BME280;30288;50.514;9.678;2023-03-15T05:23:16;98487.53;;;0.82;100.00
29903;BME280;30288;50.514;9.678;2023-03-15T05:25:37;98489.22;;;0.86;100.00
29903;BME280;30288;50.514;9.678;2023-03-15T05:27:43;98492.53;;;0.85;100.00
29903;BME280;30288;50.514;9.678;2023-03-15T05:30:07;98489.22;;;0.86;100.00
29903;BME280;30288;50.514;9.678;2023-03-15T05:32:41;98498.28;;;0.86;100.00
29903;BME280;30288;50.514;9.678;2023-03-15T05:35:11;98495.81;;;0.84;100.00
29903;BME280;30288;50.514;9.678;2023-03-15T05:37:29;98489.22;;;0.85;100.00
29903;BME280;30288;50.514;9.678;2023-03-15T05:39:55;98500.78;;;0.84;100.00
29903;BME280;30288;50.514;9.678;2023-03-15T05:42:33;98501.56;;;0.80;100.00
29903;BME280;30288;50.514;9.678;2023-03-15T05:44:51;98500.75;;;0.86;100.00
29903;BME280;30288;50.514;9.678;2023-03-15T05:47:35;98508.22;;;0.84;100.00
29903;BME280;30288;50.514;9.678;2023-03-15T05:49:43;98505.69;;;0.81;100.00
29903;BME280;30288;50.514;9.678;2023-03-15T05:52:11;98506.56;;;0.85;100.00
29903;BME280;30288;50.514;9.678;2023-03-15T05:54:39;98523.91;;;0.83;100.00
29903;BME280;30288;50.514;9.678;2023-03-15T05:57:14;98515.69;;;0.89;100.00
29903;BME280;30288;50.514;9.678;2023-03-15T05:59:42;98513.19;;;0.87;100.00
29903;BME280;30288;50.514;9.678;2023-03-15T06:02:14;98515.72;;;0.94;100.00
29903;BME280;30288;50.514;9.678;2023-03-15T06:04:30;98518.16;;;0.92;100.00
29903;BME280;30288;50.514;9.678;2023-03-15T06:06:37;98520.66;;;0.94;100.00
29903;BME280;30288;50.514;9.678;2023-03-15T06:08:45;98530.53;;;0.87;100.00
29903;BME280;30288;50.514;9.678;2023-03-15T06:10:50;98525.59;;;0.89;100.00
29903;BME280;30288;50.514;9.678;2023-03-15T06:12:55;98528.06;;;0.89;100.00
29903;BME280;30288;50.514;9.678;2023-03-15T06:15:00;98530.53;;;0.87;100.00
29903;BME280;30288;50.514;9.678;2023-03-15T06:17:05;98530.53;;;0.91;100.00
29903;BME280;30288;50.514;9.678;2023-03-15T06:19:10;98533.03;;;0.91;100.00
29903;BME280;30288;50.514;9.678;2023-03-15T06:21:14;98530.56;;;0.92;100.00
29903;BME280;30288;50.514;9.678;2023-03-15T06:23:22;98523.97;;;0.96;100.00
29903;BME280;30288;50.514;9.678;2023-03-15T06:25:27;98532.25;;;0.98;100.00
29903;BME280;30288;50.514;9.678;2023-03-15T06:27:32;98530.59;;;0.97;100.00
29903;BME280;30288;50.514;9.678;2023-03-15T06:29:38;98533.94;;;0.99;100.00
29903;BME280;30288;50.514;9.678;2023-03-15T06:31:43;98542.19;;;0.98;100.00
29903;BME280;30288;50.514;9.678;2023-03-15T06:33:51;98543.78;;;0.93;100.00
29903;BME280;30288;50.514;9.678;2023-03-15T06:35:56;98547.13;;;0.95;100.00
29903;BME280;30288;50.514;9.678;2023-03-15T06:38:03;98546.31;;;0.97;100.00
29903;BME280;30288;50.514;9.678;2023-03-15T06:40:12;98547.97;;;0.98;100.00
29903;BME280;30288;50.514;9.678;2023-03-15T06:42:18;98548.81;;;1.05;100.00
29903;BME280;30288;50.514;9.678;2023-03-15T06:44:24;98545.53;;;1.03;100.00
29903;BME280;30288;50.514;9.678;2023-03-15T06:46:34;98547.19;;;1.04;100.00
29903;BME280;30288;50.514;9.678;2023-03-15T06:48:41;98560.41;;;1.06;100.00
29903;BME280;30288;50.514;9.678;2023-03-15T06:50:47;98555.47;;;1.09;100.00
29903;BME280;30288;50.514;9.678;2023-03-15T06:52:52;98560.44;;;1.09;100.00
29903;BME280;30288;50.514;9.678;2023-03-15T06:54:58;98562.09;;;1.08;100.00
29903;BME280;30288;50.514;9.678;2023-03-15T06:57:06;98562.97;;;1.13;100.00
29903;BME280;30288;50.514;9.678;2023-03-15T06:59:11;98563.69;;;1.05;100.00
29903;BME280;30288;50.514;9.678;2023-03-15T07:01:16;98571.94;;;0.98;100.00
29903;BME280;30288;50.514;9.678;2023-03-15T07:03:22;98578.50;;;0.96;100.00
29903;BME280;30288;50.514;9.678;2023-03-15T07:05:27;98583.50;;;0.99;100.00
29903;BME280;30288;50.514;9.678;2023-03-15T07:07:32;98576.94;;;1.04;100.00
29903;BME280;30288;50.514;9.678;2023-03-15T07:09:38;98583.50;;;0.99;100.00
29903;BME280;30288;50.514;9.678;2023-03-15T07:11:43;98585.19;;;1.00;100.00
29903;BME280;30288;50.514;9.678;2023-03-15T07:13:51;98583.53;;;1.02;100.00
29903;BME280;30288;50.514;9.678;2023-03-15T07:15:56;98585.19;;;1.03;100.00
29903;BME280;30288;50.514;9.678;2023-03-15T07:18:02;98589.34;;;1.04;100.00
29903;BME280;30288;50.514;9.678;2023-03-15T07:20:09;98593.50;;;1.08;100.00
29903;BME280;30288;50.514;9.678;2023-03-15T07:22:14;98599.28;;;1.10;100.00
29903;BME280;30288;50.514;9.678;2023-03-15T07:24:19;98598.50;;;1.14;100.00
29903;BME280;30288;50.514;9.678;2023-03-15T07:26:24;98596.84;;;1.16;100.00
29903;BME280;30288;50.514;9.678;2023-03-15T07:28:29;98599.44;;;1.28;100.00
29903;BME280;30288;50.514;9.678;2023-03-15T07:30:37;98600.31;;;1.36;100.00
29903;BME280;30288;50.514;9.678;2023-03-15T07:32:42;98598.59;;;1.30;100.00
29903;BME280;30288;50.514;9.678;2023-03-15T07:34:49;98603.59;;;1.35;100.00
29903;BME280;30288;50.514;9.678;2023-03-15T07:36:54;98596.09;;;1.29;100.00
29903;BME280;30288;50.514;9.678;2023-03-15T07:38:59;98600.25;;;1.30;100.00
29903;BME280;30288;50.514;9.678;2023-03-15T07:41:05;98606.94;;;1.37;100.00
29903;BME280;30288;50.514;9.678;2023-03-15T07:43:15;98604.50;;;1.48;100.00
29903;BME280;30288;50.514;9.678;2023-03-15T07:45:23;98607.09;;;1.61;100.00
29903;BME280;30288;50.514;9.678;2023-03-15T07:47:31;98607.09;;;1.67;100.00
29903;BME280;30288;50.514;9.678;2023-03-15T07:49:38;98613.75;;;1.77;100.00
29903;BME280;30288;50.514;9.678;2023-03-15T07:51:43;98617.06;;;1.76;100.00
29903;BME280;30288;50.514;9.678;2023-03-15T07:53:48;98620.41;;;1.75;100.00
29903;BME280;30288;50.514;9.678;2023-03-15T07:55:53;98622.06;;;1.86;100.00
29903;BME280;30288;50.514;9.678;2023-03-15T07:57:58;98622.94;;;1.89;100.00
29903;BME280;30288;50.514;9.678;2023-03-15T08:00:05;98614.66;;;1.92;100.00
29903;BME280;30288;50.514;9.678;2023-03-15T08:02:14;98623.75;;;1.87;100.00
29903;BME280;30288;50.514;9.678;2023-03-15T08:04:22;98630.38;;;1.85;100.00
29903;BME280;30288;50.514;9.678;2023-03-15T08:06:27;98620.44;;;1.88;100.00
29903;BME280;30288;50.514;9.678;2023-03-15T08:08:32;98620.41;;;1.82;100.00
29903;BME280;30288;50.514;9.678;2023-03-15T08:10:37;98615.50;;;1.97;100.00
29903;BME280;30288;50.514;9.678;2023-03-15T08:12:44;98623.00;;;2.06;100.00
29903;BME280;30288;50.514;9.678;2023-03-15T08:14:49;98624.72;;;2.20;100.00
29903;BME280;30288;50.514;9.678;2023-03-15T08:16:55;98627.28;;;2.37;100.00
29903;BME280;30288;50.514;9.678;2023-03-15T08:19:00;98635.50;;;2.27;100.00
29903;BME280;30288;50.514;9.678;2023-03-15T08:21:07;98635.50;;;2.33;100.00
29903;BME280;30288;50.514;9.678;2023-03-15T08:23:13;98635.50;;;2.33;100.00
29903;BME280;30288;50.514;9.678;2023-03-15T08:25:21;98638.00;;;2.38;100.00
29903;BME280;30288;50.514;9.678;2023-03-15T08:27:26;98643.84;;;2.47;100.00
29903;BME280;30288;50.514;9.678;2023-03-15T08:29:31;98645.53;;;2.63;100.00
29903;BME280;30288;50.514;9.678;2023-03-15T08:31:37;98645.56;;;2.82;100.00
29903;BME280;30288;50.514;9.678;2023-03-15T08:33:42;98652.22;;;2.86;100.00
29903;BME280;30288;50.514;9.678;2023-03-15T08:35:51;98648.06;;;2.95;100.00
29903;BME280;30288;50.514;9.678;2023-03-15T08:38:00;98650.56;;;3.06;100.00
29903;BME280;30288;50.514;9.678;2023-03-15T08:40:07;98655.56;;;3.24;100.00
29903;BME280;30288;50.514;9.678;2023-03-15T08:42:12;98661.38;;;3.32;100.00
29903;BME280;30288;50.514;9.678;2023-03-15T08:44:18;98663.03;;;3.35;100.00
29903;BME280;30288;50.514;9.678;2023-03-15T08:46:23;98664.66;;;3.75;100.00
29903;BME280;30288;50.514;9.678;2023-03-15T08:48:28;98662.94;;;3.85;100.00
29903;BME280;30288;50.514;9.678;2023-03-15T08:50:33;98669.59;;;3.92;100.00
29903;BME280;30288;50.514;9.678;2023-03-15T08:52:39;98672.06;;;3.98;100.00
29903;BME280;30288;50.514;9.678;2023-03-15T08:54:47;98672.84;;;4.17;100.00
29903;BME280;30288;50.514;9.678;2023-03-15T08:56:52;98680.22;;;4.39;100.00
29903;BME280;30288;50.514;9.678;2023-03-15T08:58:57;98681.78;;;4.65;100.00
29903;BME280;30288;50.514;9.678;2023-03-15T09:01:03;98691.75;;;4.63;100.00
29903;BME280;30288;50.514;9.678;2023-03-15T09:03:08;98683.34;;;4.81;100.00
29903;BME280;30288;50.514;9.678;2023-03-15T09:05:14;98695.06;;;4.67;100.00
29903;BME280;30288;50.514;9.678;2023-03-15T09:07:20;98701.69;;;4.68;100.00
29903;BME280;30288;50.514;9.678;2023-03-15T09:09:25;98708.56;;;4.17;100.00
29903;BME280;30288;50.514;9.678;2023-03-15T09:11:33;98710.25;;;3.91;100.00
29903;BME280;30288;50.514;9.678;2023-03-15T09:13:39;98709.47;;;3.72;100.00
29903;BME280;30288;50.514;9.678;2023-03-15T09:15:43;98704.50;;;3.49;100.00
29903;BME280;30288;50.514;9.678;2023-03-15T09:17:49;98710.31;;;3.33;100.00
29903;BME280;30288;50.514;9.678;2023-03-15T09:19:54;98718.59;;;3.57;100.00
29903;BME280;30288;50.514;9.678;2023-03-15T09:22:00;98713.63;;;3.78;100.00
29903;BME280;30288;50.514;9.678;2023-03-15T09:24:24;98714.47;;;3.65;100.00
29903;BME280;30288;50.514;9.678;2023-03-15T09:26:29;98721.94;;;3.65;100.00
29903;BME280;30288;50.514;9.678;2023-03-15T09:28:36;98728.56;;;3.69;100.00
29903;BME280;30288;50.514;9.678;2023-03-15T09:30:41;98731.88;;;3.77;100.00
29903;BME280;30288;50.514;9.678;2023-03-15T09:32:47;98740.19;;;3.58;100.00
29903;BME280;30288;50.514;9.678;2023-03-15T09:34:53;98736.88;;;3.56;100.00
29903;BME280;30288;50.514;9.678;2023-03-15T09:36:58;98735.19;;;3.58;100.00
29903;BME280;30288;50.514;9.678;2023-03-15T09:39:03;98738.53;;;3.63;100.00
29903;BME280;30288;50.514;9.678;2023-03-15T09:41:18;98740.16;;;3.91;100.00
29903;BME280;30288;50.514;9.678;2023-03-15T09:43:51;98735.13;;;4.21;100.00
29903;BME280;30288;50.514;9.678;2023-03-15T09:46:16;98740.09;;;4.36;100.00
29903;BME280;30288;50.514;9.678;2023-03-15T09:48:27;98745.03;;;4.46;100.00
29903;BME280;30288;50.514;9.678;2023-03-15T09:50:38;98752.50;;;4.49;100.00
29903;BME280;30288;50.514;9.678;2023-03-15T09:52:47;98749.22;;;4.33;100.00
29903;BME280;30288;50.514;9.678;2023-03-15T09:54:57;98745.03;;;4.43;100.00
29903;BME280;30288;50.514;9.678;2023-03-15T09:57:07;98742.56;;;4.41;100.00
29903;BME280;30288;50.514;9.678;2023-03-15T09:59:18;98753.38;;;4.35;100.00
29903;BME280;30288;50.514;9.678;2023-03-15T10:01:29;98758.31;;;4.48;100.00
29903;BME280;30288;50.514;9.678;2023-03-15T10:03:41;98758.34;;;4.35;100.00
29903;BME280;30288;50.514;9.678;2023-03-15T10:05:55;98758.38;;;4.26;100.00
29903;BME280;30288;50.514;9.678;2023-03-15T10:08:04;98758.34;;;4.32;100.00
29903;BME280;30288;50.514;9.678;2023-03-15T10:10:17;98761.72;;;4.19;100.00
29903;BME280;30288;50.514;9.678;2023-03-15T10:12:29;98759.22;;;4.31;100.00
29903;BME280;30288;50.514;9.678;2023-03-15T10:14:58;98763.22;;;4.70;100.00
29903;BME280;30288;50.514;9.678;2023-03-15T10:17:10;98751.34;;;5.13;100.00
29903;BME280;30288;50.514;9.678;2023-03-15T10:19:26;98748.63;;;5.47;100.00
29903;BME280;30288;50.514;9.678;2023-03-15T10:21:53;98752.56;;;5.75;100.00
29903;BME280;30288;50.514;9.678;2023-03-15T10:24:02;98751.00;;;5.65;100.00
29903;BME280;30288;50.514;9.678;2023-03-15T10:26:10;98751.22;;;5.35;100.00
29903;BME280;30288;50.514;9.678;2023-03-15T10:28:24;98752.00;;;5.43;100.00
29903;BME280;30288;50.514;9.678;2023-03-15T10:30:47;98750.53;;;5.13;100.00
29903;BME280;30288;50.514;9.678;2023-03-15T10:32:57;98760.44;;;5.23;100.00
29903;BME280;30288;50.514;9.678;2023-03-15T10:35:13;98757.91;;;5.29;100.00
29903;BME280;30288;50.514;9.678;2023-03-15T10:37:19;98762.00;;;5.38;100.00
29903;BME280;30288;50.514;9.678;2023-03-15T10:39:24;98759.53;;;5.37;100.00
29903;BME280;30288;50.514;9.678;2023-03-15T10:41:38;98759.41;;;5.52;100.00
29903;BME280;30288;50.514;9.678;2023-03-15T10:43:57;98752.81;;;5.42;100.00
29903;BME280;30288;50.514;9.678;2023-03-15T10:46:09;98754.53;;;5.40;100.00
29903;BME280;30288;50.514;9.678;2023-03-15T10:48:15;98760.38;;;5.36;100.00
29903;BME280;30288;50.514;9.678;2023-03-15T10:50:26;98764.44;;;5.49;100.00
29903;BME280;30288;50.514;9.678;2023-03-15T10:52:35;98766.03;;;5.59;100.00
29903;BME280;30288;50.514;9.678;2023-03-15T10:54:41;98769.44;;;5.49;100.00
29903;BME280;30288;50.514;9.678;2023-03-15T10:56:54;98764.41;;;5.52;100.00
29903;BME280;30288;50.514;9.678;2023-03-15T10:59:02;98771.19;;;5.35;100.00
29903;BME280;30288;50.514;9.678;2023-03-15T11:01:25;98765.50;;;5.17;100.00
29903;BME280;30288;50.514;9.678;2023-03-15T11:03:36;98768.03;;;5.05;100.00
29903;BME280;30288;50.514;9.678;2023-03-15T11:05:44;98770.56;;;5.01;100.00
29903;BME280;30288;50.514;9.678;2023-03-15T11:07:55;98762.25;;;5.00;100.00
29903;BME280;30288;50.514;9.678;2023-03-15T11:10:04;98763.06;;;5.08;100.00
29903;BME280;30288;50.514;9.678;2023-03-15T11:12:15;98757.97;;;5.20;100.00
29903;BME280;30288;50.514;9.678;2023-03-15T11:14:29;98764.66;;;5.15;100.00
29903;BME280;30288;50.514;9.678;2023-03-15T11:16:38;98771.22;;;5.28;100.00
29903;BME280;30288;50.514;9.678;2023-03-15T11:18:47;98781.25;;;5.25;100.00
29903;BME280;30288;50.514;9.678;2023-03-15T11:20:56;98778.97;;;4.83;100.00
29903;BME280;30288;50.514;9.678;2023-03-15T11:23:12;98779.91;;;4.49;100.00
29903;BME280;30288;50.514;9.678;2023-03-15T11:25:19;98788.19;;;4.63;100.00
29903;BME280;30288;50.514;9.678;2023-03-15T11:27:27;98784.84;;;4.73;100.00